createdAt,value
2023-01-13T00:00:03.295Z,34.56
2023-01-13T00:00:33.405Z,34.57
2023-01-13T00:01:03.356Z,34.57
2023-01-13T00:01:33.401Z,34.53
2023-01-13T00:02:03.483Z,34.56
2023-01-13T00:02:33.470Z,34.56
2023-01-13T00:03:03.551Z,34.57
2023-01-13T00:03:33.657Z,34.52
2023-01-13T00:04:03.751Z,34.53
2023-01-13T00:04:33.884Z,34.57
2023-01-13T00:05:04.026Z,34.54
2023-01-13T00:05:34.022Z,34.54
2023-01-13T00:06:04.110Z,34.56
2023-01-13T00:06:34.187Z,34.54
2023-01-13T00:07:04.281Z,34.56
2023-01-13T00:07:34.378Z,34.54
2023-01-13T00:08:04.468Z,34.59
2023-01-13T00:08:34.573Z,34.52
2023-01-13T00:09:04.671Z,34.54
2023-01-13T00:09:34.761Z,34.60
2023-01-13T00:10:04.853Z,34.59
2023-01-13T00:10:34.962Z,34.60
2023-01-13T00:11:05.034Z,34.57
2023-01-13T00:11:35.139Z,34.57
2023-01-13T00:12:05.218Z,34.56
2023-01-13T00:12:35.323Z,34.56
2023-01-13T00:13:05.459Z,34.56
2023-01-13T00:13:35.643Z,34.59
2023-01-13T00:14:05.580Z,34.53
2023-01-13T00:14:35.675Z,34.58
2023-01-13T00:15:05.719Z,34.59
2023-01-13T00:15:35.948Z,34.54
2023-01-13T00:16:05.966Z,34.55
2023-01-13T00:16:35.960Z,34.57
2023-01-13T00:17:06.047Z,34.56
2023-01-13T00:17:36.142Z,34.56
2023-01-13T00:18:06.235Z,34.58
2023-01-13T00:18:36.326Z,34.60
2023-01-13T00:19:06.417Z,34.60
2023-01-13T00:19:36.515Z,34.56
2023-01-13T00:20:06.615Z,34.56
2023-01-13T00:20:36.731Z,34.57
2023-01-13T00:21:06.804Z,34.57
2023-01-13T00:21:36.904Z,34.58
2023-01-13T00:22:06.998Z,34.59
2023-01-13T00:22:37.102Z,34.53
2023-01-13T00:23:07.177Z,34.56
2023-01-13T00:23:37.271Z,34.58
2023-01-13T00:24:07.377Z,34.55
2023-01-13T00:24:37.461Z,34.56
2023-01-13T00:25:07.552Z,34.57
2023-01-13T00:25:37.645Z,34.53
2023-01-13T00:26:07.748Z,34.58
2023-01-13T00:26:37.828Z,34.58
2023-01-13T00:27:07.924Z,34.57
2023-01-13T00:27:38.019Z,34.53
2023-01-13T00:28:08.111Z,34.52
2023-01-13T00:28:38.207Z,34.52
2023-01-13T00:29:08.289Z,34.50
2023-01-13T00:29:38.381Z,34.53
2023-01-13T00:30:08.480Z,34.55
2023-01-13T00:30:38.580Z,34.59
2023-01-13T00:31:08.792Z,34.55
2023-01-13T00:31:38.845Z,34.58
2023-01-13T00:32:08.799Z,34.54
2023-01-13T00:32:38.877Z,34.55
2023-01-13T00:33:08.973Z,34.56
2023-01-13T00:33:39.063Z,34.54
2023-01-13T00:34:09.169Z,34.54
2023-01-13T00:34:39.282Z,34.54
2023-01-13T00:35:09.375Z,34.54
2023-01-13T00:35:39.476Z,34.53
2023-01-13T00:36:09.569Z,34.50
2023-01-13T00:36:39.654Z,34.53
2023-01-13T00:37:09.744Z,34.53
2023-01-13T00:37:39.838Z,34.55
2023-01-13T00:38:09.940Z,34.53
2023-01-13T00:38:40.041Z,34.54
2023-01-13T00:39:10.132Z,34.49
2023-01-13T00:39:40.218Z,34.52
2023-01-13T00:40:10.311Z,34.52
2023-01-13T00:40:40.414Z,34.50
2023-01-13T00:41:10.503Z,34.54
2023-01-13T00:41:40.587Z,34.55
2023-01-13T00:42:10.678Z,34.50
2023-01-13T00:42:40.791Z,34.52
2023-01-13T00:43:10.874Z,34.57
2023-01-13T00:43:40.972Z,34.57
2023-01-13T00:44:11.060Z,34.54
2023-01-13T00:44:41.150Z,34.55
2023-01-13T00:45:11.239Z,34.54
2023-01-13T00:45:41.335Z,34.55
2023-01-13T00:46:11.455Z,34.55
2023-01-13T00:46:41.531Z,34.50
2023-01-13T00:47:11.483Z,34.54
2023-01-13T00:47:41.586Z,34.54
2023-01-13T00:48:11.682Z,34.54
2023-01-13T00:48:41.786Z,34.52
2023-01-13T00:49:11.864Z,34.58
2023-01-13T00:49:41.969Z,34.58
2023-01-13T00:50:12.059Z,34.53
2023-01-13T00:50:42.139Z,34.54
2023-01-13T00:51:12.258Z,34.52
2023-01-13T00:51:42.315Z,34.58
2023-01-13T00:52:12.459Z,34.52
2023-01-13T00:52:42.512Z,34.54
2023-01-13T00:53:12.413Z,34.55
2023-01-13T00:53:42.471Z,34.50
2023-01-13T00:54:12.520Z,34.43
2023-01-13T00:54:42.589Z,34.52
2023-01-13T00:55:12.647Z,34.48
2023-01-13T00:55:42.705Z,34.51
2023-01-13T00:56:12.758Z,34.50
2023-01-13T00:56:42.823Z,34.47
2023-01-13T00:57:12.872Z,34.52
2023-01-13T00:57:42.920Z,34.46
2023-01-13T00:58:12.982Z,34.52
2023-01-13T00:58:43.037Z,34.51
2023-01-13T00:59:13.089Z,34.50
2023-01-13T00:59:43.222Z,34.48
2023-01-13T01:00:13.248Z,34.51
2023-01-13T01:00:43.398Z,34.48
2023-01-13T01:01:13.471Z,34.47
2023-01-13T01:01:43.623Z,34.54
2023-01-13T01:02:13.573Z,34.51
2023-01-13T01:02:43.452Z,34.52
2023-01-13T01:03:13.540Z,34.50
2023-01-13T01:03:43.638Z,34.48
2023-01-13T01:04:13.726Z,34.54
2023-01-13T01:04:43.835Z,34.52
2023-01-13T01:05:13.933Z,34.48
2023-01-13T01:05:44.025Z,34.54
2023-01-13T01:06:14.116Z,34.48
2023-01-13T01:06:44.228Z,34.51
2023-01-13T01:07:14.296Z,34.51
2023-01-13T01:07:44.387Z,34.50
2023-01-13T01:08:14.477Z,34.52
2023-01-13T01:08:44.568Z,34.51
2023-01-13T01:09:14.674Z,34.48
2023-01-13T01:09:44.798Z,34.44
2023-01-13T01:10:14.755Z,34.48
2023-01-13T01:10:44.852Z,34.50
2023-01-13T01:11:14.941Z,34.51
2023-01-13T01:11:45.027Z,34.51
2023-01-13T01:12:15.123Z,34.48
2023-01-13T01:12:45.219Z,34.54
2023-01-13T01:13:15.304Z,34.47
2023-01-13T01:13:45.402Z,34.47
2023-01-13T01:14:15.506Z,34.49
2023-01-13T01:14:45.601Z,34.51
2023-01-13T01:15:15.687Z,34.52
2023-01-13T01:15:45.808Z,34.51
2023-01-13T01:16:16.005Z,34.51
2023-01-13T01:16:45.972Z,34.48
2023-01-13T01:17:16.063Z,34.50
2023-01-13T01:17:46.159Z,34.51
2023-01-13T01:18:16.253Z,34.48
2023-01-13T01:18:46.345Z,34.52
2023-01-13T01:19:16.429Z,34.45
2023-01-13T01:19:46.566Z,34.47
2023-01-13T01:20:16.540Z,34.50
2023-01-13T01:20:46.618Z,34.50
2023-01-13T01:21:16.719Z,34.51
2023-01-13T01:21:46.812Z,34.51
2023-01-13T01:22:16.950Z,34.43
2023-01-13T01:22:46.904Z,34.50
2023-01-13T01:23:16.991Z,34.45
2023-01-13T01:23:47.087Z,34.50
2023-01-13T01:24:17.190Z,34.44
2023-01-13T01:24:47.289Z,34.44
2023-01-13T01:25:17.387Z,34.45
2023-01-13T01:25:47.482Z,34.43
2023-01-13T01:26:17.569Z,34.44
2023-01-13T01:26:47.660Z,34.48
2023-01-13T01:27:17.758Z,34.45
2023-01-13T01:27:47.843Z,34.48
2023-01-13T01:28:17.935Z,34.47
2023-01-13T01:28:48.027Z,34.49
2023-01-13T01:29:18.116Z,34.45
2023-01-13T01:29:48.239Z,34.52
2023-01-13T01:30:18.210Z,34.48
2023-01-13T01:30:48.305Z,34.49
2023-01-13T01:31:18.490Z,34.44
2023-01-13T01:31:48.544Z,34.45
2023-01-13T01:32:18.506Z,34.41
2023-01-13T01:32:48.598Z,34.44
2023-01-13T01:33:18.688Z,34.43
2023-01-13T01:33:48.781Z,34.41
2023-01-13T01:34:18.890Z,34.41
2023-01-13T01:34:48.992Z,34.41
2023-01-13T01:35:19.088Z,34.47
2023-01-13T01:35:49.177Z,34.45
2023-01-13T01:36:19.290Z,34.47
2023-01-13T01:36:49.354Z,34.44
2023-01-13T01:37:19.471Z,34.47
2023-01-13T01:37:49.536Z,34.45
2023-01-13T01:38:19.631Z,34.42
2023-01-13T01:38:49.721Z,34.47
2023-01-13T01:39:19.814Z,34.45
2023-01-13T01:39:49.946Z,34.45
2023-01-13T01:40:19.909Z,34.49
2023-01-13T01:40:50.005Z,34.49
2023-01-13T01:41:20.097Z,34.44
2023-01-13T01:41:50.183Z,34.47
2023-01-13T01:42:20.299Z,34.48
2023-01-13T01:42:50.264Z,34.49
2023-01-13T01:43:20.356Z,34.44
2023-01-13T01:43:50.452Z,34.52
2023-01-13T01:44:20.550Z,34.44
2023-01-13T01:44:50.813Z,34.48
2023-01-13T01:45:20.758Z,34.48
2023-01-13T01:45:50.843Z,34.45
2023-01-13T01:46:21.002Z,34.45
2023-01-13T01:46:51.090Z,34.47
2023-01-13T01:47:21.098Z,34.42
2023-01-13T01:47:51.189Z,34.48
2023-01-13T01:48:21.276Z,34.45
2023-01-13T01:48:51.372Z,34.48
2023-01-13T01:49:21.465Z,34.41
2023-01-13T01:49:51.551Z,34.45
2023-01-13T01:50:21.637Z,34.48
2023-01-13T01:50:51.725Z,34.41
2023-01-13T01:51:21.813Z,34.44
2023-01-13T01:51:51.884Z,34.47
2023-01-13T01:52:21.976Z,34.41
2023-01-13T01:52:52.051Z,34.41
2023-01-13T01:53:22.089Z,34.34
2023-01-13T01:53:52.140Z,34.34
2023-01-13T01:54:22.201Z,34.37
2023-01-13T01:54:52.285Z,34.46
2023-01-13T01:55:22.325Z,34.40
2023-01-13T01:55:52.377Z,34.42
2023-01-13T01:56:22.426Z,34.45
2023-01-13T01:56:52.476Z,34.37
2023-01-13T01:57:22.532Z,34.42
2023-01-13T01:57:52.583Z,34.38
2023-01-13T01:58:22.636Z,34.39
2023-01-13T01:58:52.704Z,34.45
2023-01-13T01:59:22.746Z,34.42
2023-01-13T01:59:52.826Z,34.40
2023-01-13T02:00:22.872Z,34.42
2023-01-13T02:00:53.068Z,34.39
2023-01-13T02:01:23.095Z,34.40
2023-01-13T02:01:53.279Z,34.39
2023-01-13T02:02:23.120Z,34.39
2023-01-13T02:02:53.205Z,34.41
2023-01-13T02:03:23.288Z,34.41
2023-01-13T02:03:53.378Z,34.34
2023-01-13T02:04:23.468Z,34.39
2023-01-13T02:04:53.583Z,34.37
2023-01-13T02:05:23.661Z,34.39
2023-01-13T02:05:53.755Z,34.42
2023-01-13T02:06:23.859Z,34.41
2023-01-13T02:06:53.947Z,34.41
2023-01-13T02:07:24.029Z,34.37
2023-01-13T02:07:54.132Z,34.42
2023-01-13T02:08:24.246Z,34.43
2023-01-13T02:08:54.318Z,34.39
2023-01-13T02:09:24.401Z,34.41
2023-01-13T02:09:54.535Z,34.39
2023-01-13T02:10:24.493Z,34.37
2023-01-13T02:10:54.589Z,34.31
2023-01-13T02:11:24.672Z,34.37
2023-01-13T02:11:54.768Z,34.30
2023-01-13T02:12:24.902Z,34.32
2023-01-13T02:12:54.981Z,34.37
2023-01-13T02:13:25.081Z,34.35
2023-01-13T02:13:55.170Z,34.36
2023-01-13T02:14:25.261Z,34.34
2023-01-13T02:14:55.351Z,34.34
2023-01-13T02:15:25.447Z,34.31
2023-01-13T02:15:55.539Z,34.28
2023-01-13T02:16:25.710Z,34.34
2023-01-13T02:16:55.662Z,34.35
2023-01-13T02:17:25.773Z,34.38
2023-01-13T02:17:55.859Z,34.35
2023-01-13T02:18:25.950Z,34.38
2023-01-13T02:18:56.045Z,34.37
2023-01-13T02:19:26.124Z,34.34
2023-01-13T02:19:56.214Z,34.36
2023-01-13T02:20:26.306Z,34.31
2023-01-13T02:20:56.400Z,34.34
2023-01-13T02:21:26.486Z,34.33
2023-01-13T02:21:56.583Z,34.34
2023-01-13T02:22:26.697Z,34.38
2023-01-13T02:22:56.789Z,34.35
2023-01-13T02:23:26.894Z,34.35
2023-01-13T02:23:56.964Z,34.32
2023-01-13T02:24:27.052Z,34.31
2023-01-13T02:24:57.136Z,34.34
2023-01-13T02:25:27.195Z,34.25
2023-01-13T02:25:57.300Z,34.21
2023-01-13T02:26:27.385Z,34.24
2023-01-13T02:26:57.513Z,34.30
2023-01-13T02:27:27.613Z,34.25
2023-01-13T02:27:57.639Z,34.30
2023-01-13T02:28:27.663Z,34.32
2023-01-13T02:28:57.745Z,34.33
2023-01-13T02:29:27.839Z,34.35
2023-01-13T02:29:57.924Z,34.36
2023-01-13T02:30:28.013Z,34.34
2023-01-13T02:30:58.112Z,34.32
2023-01-13T02:31:28.205Z,34.30
2023-01-13T02:31:58.306Z,34.32
2023-01-13T02:32:28.408Z,34.24
2023-01-13T02:32:58.496Z,34.24
2023-01-13T02:33:28.599Z,34.25
2023-01-13T02:33:58.705Z,34.30
2023-01-13T02:34:28.775Z,34.24
2023-01-13T02:34:58.870Z,34.25
2023-01-13T02:35:28.960Z,34.23
2023-01-13T02:35:59.056Z,34.24
2023-01-13T02:36:29.164Z,34.25
2023-01-13T02:36:59.256Z,34.16
2023-01-13T02:37:29.353Z,34.19
2023-01-13T02:37:59.445Z,34.16
2023-01-13T02:38:29.533Z,34.14
2023-01-13T02:38:59.651Z,34.21
2023-01-13T02:39:29.713Z,34.20
2023-01-13T02:39:59.812Z,34.17
2023-01-13T02:40:29.925Z,34.20
2023-01-13T02:41:00.029Z,34.20
2023-01-13T02:41:30.104Z,34.23
2023-01-13T02:42:00.200Z,34.20
2023-01-13T02:42:30.283Z,34.16
2023-01-13T02:43:00.384Z,34.18
2023-01-13T02:43:30.472Z,34.17
2023-01-13T02:44:00.564Z,34.18
2023-01-13T02:44:30.656Z,34.18
2023-01-13T02:45:00.754Z,34.19
2023-01-13T02:45:30.921Z,34.21
2023-01-13T02:46:00.893Z,34.28
2023-01-13T02:46:30.978Z,34.24
2023-01-13T02:47:01.056Z,34.24
2023-01-13T02:47:31.147Z,34.29
2023-01-13T02:48:01.242Z,34.24
2023-01-13T02:48:31.352Z,34.24
2023-01-13T02:49:01.419Z,34.19
2023-01-13T02:49:31.508Z,34.24
2023-01-13T02:50:01.622Z,34.24
2023-01-13T02:50:31.720Z,34.24
2023-01-13T02:51:01.808Z,34.21
2023-01-13T02:51:31.889Z,34.25
2023-01-13T02:52:01.949Z,34.29
2023-01-13T02:52:32.005Z,34.28
2023-01-13T02:53:02.055Z,34.28
2023-01-13T02:53:32.104Z,34.29
2023-01-13T02:54:02.219Z,34.31
2023-01-13T02:54:32.240Z,34.33
2023-01-13T02:55:02.314Z,34.30
2023-01-13T02:55:32.380Z,34.30
2023-01-13T02:56:02.432Z,34.33
2023-01-13T02:56:32.484Z,34.33
2023-01-13T02:57:02.546Z,34.30
2023-01-13T02:57:32.603Z,34.35
2023-01-13T02:58:02.656Z,34.35
2023-01-13T02:58:32.724Z,34.36
2023-01-13T02:59:02.768Z,34.32
2023-01-13T02:59:32.796Z,34.29
2023-01-13T03:00:02.794Z,34.28
2023-01-13T03:00:32.796Z,34.27
2023-01-13T03:01:02.951Z,34.27
2023-01-13T03:01:33.093Z,34.27
2023-01-13T03:02:03.148Z,34.29
2023-01-13T03:02:33.087Z,34.23
2023-01-13T03:03:03.117Z,34.33
2023-01-13T03:03:33.158Z,34.29
2023-01-13T03:04:03.175Z,34.23
2023-01-13T03:04:33.201Z,34.26
2023-01-13T03:05:03.236Z,34.33
2023-01-13T03:05:33.293Z,34.27
2023-01-13T03:06:03.317Z,34.27
2023-01-13T03:06:33.349Z,34.22
2023-01-13T03:07:03.385Z,34.23
2023-01-13T03:07:33.418Z,34.28
2023-01-13T03:08:03.452Z,34.26
2023-01-13T03:08:33.483Z,34.30
2023-01-13T03:09:03.506Z,34.32
2023-01-13T03:09:33.561Z,34.29
2023-01-13T03:10:03.576Z,34.34
2023-01-13T03:10:33.626Z,34.30
2023-01-13T03:11:03.661Z,34.35
2023-01-13T03:11:33.693Z,34.34
2023-01-13T03:12:03.726Z,34.37
2023-01-13T03:12:33.767Z,34.33
2023-01-13T03:13:03.800Z,34.33
2023-01-13T03:13:33.826Z,34.33
2023-01-13T03:14:03.855Z,34.34
2023-01-13T03:14:33.900Z,34.34
2023-01-13T03:15:03.927Z,34.37
2023-01-13T03:15:33.983Z,34.33
2023-01-13T03:16:04.015Z,34.34
2023-01-13T03:16:34.075Z,34.31
2023-01-13T03:17:04.108Z,34.33
2023-01-13T03:17:34.145Z,34.31
2023-01-13T03:18:04.188Z,34.30
2023-01-13T03:18:34.209Z,34.30
2023-01-13T03:19:04.257Z,34.31
2023-01-13T03:19:34.298Z,34.31
2023-01-13T03:20:04.332Z,34.28
2023-01-13T03:20:34.377Z,34.29
2023-01-13T03:21:04.418Z,34.28
2023-01-13T03:21:34.451Z,34.22
2023-01-13T03:22:04.481Z,34.27
2023-01-13T03:22:34.512Z,34.27
2023-01-13T03:23:04.548Z,34.24
2023-01-13T03:23:34.586Z,34.30
2023-01-13T03:24:04.624Z,34.27
2023-01-13T03:24:34.670Z,34.33
2023-01-13T03:25:04.707Z,34.31
2023-01-13T03:25:34.745Z,34.34
2023-01-13T03:26:04.776Z,34.36
2023-01-13T03:26:34.808Z,34.29
2023-01-13T03:27:04.840Z,34.27
2023-01-13T03:27:34.892Z,34.28
2023-01-13T03:28:04.913Z,34.32
2023-01-13T03:28:34.946Z,34.22
2023-01-13T03:29:04.983Z,34.33
2023-01-13T03:29:35.022Z,34.27
2023-01-13T03:30:05.053Z,34.24
2023-01-13T03:30:35.134Z,34.19
2023-01-13T03:31:05.259Z,34.30
2023-01-13T03:31:35.179Z,34.25
2023-01-13T03:32:05.215Z,34.23
2023-01-13T03:32:35.255Z,34.20
2023-01-13T03:33:05.292Z,34.16
2023-01-13T03:33:35.318Z,34.28
2023-01-13T03:34:05.356Z,34.22
2023-01-13T03:34:35.386Z,34.24
2023-01-13T03:35:05.496Z,34.21
2023-01-13T03:35:35.528Z,34.23
2023-01-13T03:36:05.567Z,34.27
2023-01-13T03:36:35.602Z,34.25
2023-01-13T03:37:05.653Z,34.26
2023-01-13T03:37:35.665Z,34.23
2023-01-13T03:38:05.723Z,34.20
2023-01-13T03:38:35.737Z,34.20
2023-01-13T03:39:05.776Z,34.20
2023-01-13T03:39:35.810Z,34.26
2023-01-13T03:40:05.842Z,34.26
2023-01-13T03:40:35.894Z,34.24
2023-01-13T03:41:05.910Z,34.15
2023-01-13T03:41:35.939Z,34.28
2023-01-13T03:42:05.975Z,34.24
2023-01-13T03:42:36.016Z,34.21
2023-01-13T03:43:06.054Z,34.17
2023-01-13T03:43:36.094Z,34.23
2023-01-13T03:44:06.133Z,34.24
2023-01-13T03:44:36.172Z,34.23
2023-01-13T03:45:06.206Z,34.30
2023-01-13T03:45:36.376Z,34.27
2023-01-13T03:46:06.337Z,34.26
2023-01-13T03:46:36.384Z,34.30
2023-01-13T03:47:06.419Z,34.31
2023-01-13T03:47:36.461Z,34.27
2023-01-13T03:48:06.495Z,34.27
2023-01-13T03:48:36.538Z,34.28
2023-01-13T03:49:06.564Z,34.24
2023-01-13T03:49:36.679Z,34.24
2023-01-13T03:50:06.717Z,34.24
2023-01-13T03:50:36.746Z,34.17
2023-01-13T03:51:06.784Z,34.14
2023-01-13T03:51:36.795Z,34.17
2023-01-13T03:52:06.820Z,34.23
2023-01-13T03:52:36.831Z,34.20
2023-01-13T03:53:06.820Z,34.17
2023-01-13T03:53:36.943Z,34.16
2023-01-13T03:54:06.941Z,34.10
2023-01-13T03:54:36.936Z,34.03
2023-01-13T03:55:06.947Z,34.00
2023-01-13T03:55:36.942Z,34.00
2023-01-13T03:56:07.070Z,34.00
2023-01-13T03:56:37.040Z,33.96
2023-01-13T03:57:07.156Z,33.98
2023-01-13T03:57:37.220Z,33.97
2023-01-13T03:58:07.261Z,33.94
2023-01-13T03:58:37.229Z,33.88
2023-01-13T03:59:07.356Z,33.84
2023-01-13T03:59:37.360Z,33.86
2023-01-13T04:00:07.475Z,33.80
2023-01-13T04:00:37.597Z,33.81
2023-01-13T04:01:07.777Z,33.83
2023-01-13T04:01:37.852Z,33.78
2023-01-13T04:02:07.927Z,33.77
2023-01-13T04:02:37.871Z,33.76
2023-01-13T04:03:07.909Z,33.80
2023-01-13T04:03:37.989Z,33.72
2023-01-13T04:04:08.069Z,33.78
2023-01-13T04:04:38.116Z,33.68
2023-01-13T04:05:08.151Z,33.73
2023-01-13T04:05:38.183Z,33.67
2023-01-13T04:06:08.233Z,33.70
2023-01-13T04:06:38.264Z,33.64
2023-01-13T04:07:08.304Z,33.61
2023-01-13T04:07:38.323Z,33.61
2023-01-13T04:08:08.358Z,33.60
2023-01-13T04:08:38.388Z,33.58
2023-01-13T04:09:08.424Z,33.62
2023-01-13T04:09:38.461Z,33.61
2023-01-13T04:10:08.493Z,33.61
2023-01-13T04:10:38.524Z,33.52
2023-01-13T04:11:08.584Z,33.53
2023-01-13T04:11:38.641Z,33.52
2023-01-13T04:12:08.645Z,33.56
2023-01-13T04:12:38.678Z,33.54
2023-01-13T04:13:08.714Z,33.49
2023-01-13T04:13:38.750Z,33.51
2023-01-13T04:14:08.808Z,33.45
2023-01-13T04:14:38.821Z,33.48
2023-01-13T04:15:08.864Z,33.49
2023-01-13T04:15:38.954Z,33.46
2023-01-13T04:16:09.245Z,33.43
2023-01-13T04:16:39.034Z,33.51
2023-01-13T04:17:09.052Z,33.43
2023-01-13T04:17:39.087Z,33.45
2023-01-13T04:18:09.128Z,33.44
2023-01-13T04:18:39.162Z,33.45
2023-01-13T04:19:09.192Z,33.45
2023-01-13T04:19:39.226Z,33.45
2023-01-13T04:20:09.269Z,33.41
2023-01-13T04:20:39.299Z,33.39
2023-01-13T04:21:09.625Z,33.34
2023-01-13T04:21:39.407Z,33.42
2023-01-13T04:22:09.456Z,33.38
2023-01-13T04:22:39.473Z,33.39
2023-01-13T04:23:09.528Z,33.36
2023-01-13T04:23:39.540Z,33.38
2023-01-13T04:24:09.571Z,33.33
2023-01-13T04:24:39.607Z,33.34
2023-01-13T04:25:09.674Z,33.39
2023-01-13T04:25:39.723Z,33.35
2023-01-13T04:26:09.913Z,33.33
2023-01-13T04:26:39.819Z,33.29
2023-01-13T04:27:09.894Z,33.32
2023-01-13T04:27:39.892Z,33.30
2023-01-13T04:28:09.930Z,33.28
2023-01-13T04:28:39.957Z,33.30
2023-01-13T04:29:09.993Z,33.32
2023-01-13T04:29:40.027Z,33.38
2023-01-13T04:30:10.057Z,33.31
2023-01-13T04:30:40.183Z,33.38
2023-01-13T04:31:10.189Z,33.34
2023-01-13T04:31:40.216Z,33.39
2023-01-13T04:32:10.252Z,33.36
2023-01-13T04:32:40.290Z,33.38
2023-01-13T04:33:10.338Z,33.39
2023-01-13T04:33:40.364Z,33.47
2023-01-13T04:34:10.387Z,33.48
2023-01-13T04:34:40.429Z,33.45
2023-01-13T04:35:10.452Z,33.45
2023-01-13T04:35:40.489Z,33.48
2023-01-13T04:36:10.535Z,33.54
2023-01-13T04:36:40.552Z,33.49
2023-01-13T04:37:10.582Z,33.54
2023-01-13T04:37:40.619Z,33.52
2023-01-13T04:38:10.662Z,33.52
2023-01-13T04:38:40.685Z,33.62
2023-01-13T04:39:10.716Z,33.57
2023-01-13T04:39:40.751Z,33.59
2023-01-13T04:40:10.774Z,33.57
2023-01-13T04:40:40.817Z,33.59
2023-01-13T04:41:10.852Z,33.57
2023-01-13T04:41:40.891Z,33.57
2023-01-13T04:42:10.917Z,33.57
2023-01-13T04:42:40.985Z,33.59
2023-01-13T04:43:10.997Z,33.55
2023-01-13T04:43:41.023Z,33.61
2023-01-13T04:44:11.075Z,33.60
2023-01-13T04:44:41.099Z,33.62
2023-01-13T04:45:11.134Z,33.59
2023-01-13T04:45:41.160Z,33.60
2023-01-13T04:46:11.244Z,33.63
2023-01-13T04:46:41.191Z,33.67
2023-01-13T04:47:11.243Z,33.66
2023-01-13T04:47:41.258Z,33.60
2023-01-13T04:48:11.312Z,33.60
2023-01-13T04:48:41.335Z,33.66
2023-01-13T04:49:11.388Z,33.62
2023-01-13T04:49:41.398Z,33.65
2023-01-13T04:50:11.428Z,33.69
2023-01-13T04:50:41.483Z,33.64
2023-01-13T04:51:11.516Z,33.60
2023-01-13T04:51:41.525Z,33.62
2023-01-13T04:52:11.643Z,33.54
2023-01-13T04:52:41.771Z,33.59
2023-01-13T04:53:11.773Z,33.57
2023-01-13T04:53:41.902Z,33.53
2023-01-13T04:54:11.906Z,33.54
2023-01-13T04:54:41.897Z,33.54
2023-01-13T04:55:11.895Z,33.54
2023-01-13T04:55:41.900Z,33.51
2023-01-13T04:56:11.934Z,33.50
2023-01-13T04:56:42.059Z,33.50
2023-01-13T04:57:12.051Z,33.49
2023-01-13T04:57:42.165Z,33.47
2023-01-13T04:58:12.199Z,33.41
2023-01-13T04:58:42.201Z,33.50
2023-01-13T04:59:12.212Z,33.41
2023-01-13T04:59:42.232Z,33.49
2023-01-13T05:00:12.201Z,33.50
2023-01-13T05:00:42.323Z,33.47
2023-01-13T05:01:12.468Z,33.49
2023-01-13T05:01:42.446Z,33.42
2023-01-13T05:02:12.470Z,33.39
2023-01-13T05:02:42.415Z,33.48
2023-01-13T05:03:12.459Z,33.44
2023-01-13T05:03:42.491Z,33.45
2023-01-13T05:04:12.526Z,33.44
2023-01-13T05:04:42.578Z,33.45
2023-01-13T05:05:12.593Z,33.47
2023-01-13T05:05:42.648Z,33.41
2023-01-13T05:06:12.685Z,33.42
2023-01-13T05:06:42.722Z,33.45
2023-01-13T05:07:12.751Z,33.45
2023-01-13T05:07:42.805Z,33.44
2023-01-13T05:08:12.833Z,33.42
2023-01-13T05:08:42.872Z,33.42
2023-01-13T05:09:12.894Z,33.39
2023-01-13T05:09:42.930Z,33.39
2023-01-13T05:10:12.972Z,33.39
2023-01-13T05:10:43.003Z,33.38
2023-01-13T05:11:13.039Z,33.33
2023-01-13T05:11:43.075Z,33.37
2023-01-13T05:12:13.111Z,33.32
2023-01-13T05:12:43.145Z,33.33
2023-01-13T05:13:13.180Z,33.36
2023-01-13T05:13:43.243Z,33.31
2023-01-13T05:14:13.246Z,33.29
2023-01-13T05:14:43.291Z,33.29
2023-01-13T05:15:13.324Z,33.29
2023-01-13T05:15:43.378Z,33.32
2023-01-13T05:16:13.421Z,33.27
2023-01-13T05:16:43.461Z,33.26
2023-01-13T05:17:13.507Z,33.33
2023-01-13T05:17:43.535Z,33.29
2023-01-13T05:18:13.573Z,33.30
2023-01-13T05:18:43.599Z,33.30
2023-01-13T05:19:13.629Z,33.29
2023-01-13T05:19:43.659Z,33.29
2023-01-13T05:20:13.687Z,33.30
2023-01-13T05:20:43.720Z,33.29
2023-01-13T05:21:13.752Z,33.26
2023-01-13T05:21:43.847Z,33.31
2023-01-13T05:22:13.879Z,33.29
2023-01-13T05:22:43.915Z,33.26
2023-01-13T05:23:13.956Z,33.25
2023-01-13T05:23:43.989Z,33.20
2023-01-13T05:24:14.021Z,33.20
2023-01-13T05:24:44.050Z,33.13
2023-01-13T05:25:14.081Z,33.14
2023-01-13T05:25:44.672Z,33.17
2023-01-13T05:26:14.122Z,33.14
2023-01-13T05:26:44.184Z,33.13
2023-01-13T05:27:14.214Z,33.11
2023-01-13T05:27:44.251Z,33.14
2023-01-13T05:28:14.273Z,33.14
2023-01-13T05:28:44.305Z,33.10
2023-01-13T05:29:14.371Z,33.10
2023-01-13T05:29:44.378Z,33.11
2023-01-13T05:30:14.406Z,33.10
2023-01-13T05:30:44.435Z,33.11
2023-01-13T05:31:14.494Z,33.11
2023-01-13T05:31:44.540Z,33.08
2023-01-13T05:32:14.565Z,33.10
2023-01-13T05:32:44.599Z,33.17
2023-01-13T05:33:14.631Z,33.14
2023-01-13T05:33:44.657Z,33.16
2023-01-13T05:34:14.689Z,33.06
2023-01-13T05:34:44.721Z,33.11
2023-01-13T05:35:14.748Z,33.08
2023-01-13T05:35:44.794Z,33.08
2023-01-13T05:36:14.817Z,33.16
2023-01-13T05:36:44.856Z,33.03
2023-01-13T05:37:14.890Z,33.14
2023-01-13T05:37:44.923Z,33.09
2023-01-13T05:38:14.951Z,33.11
2023-01-13T05:38:44.986Z,33.08
2023-01-13T05:39:15.015Z,33.08
2023-01-13T05:39:45.049Z,33.06
2023-01-13T05:40:15.075Z,33.10
2023-01-13T05:40:45.108Z,33.08
2023-01-13T05:41:15.142Z,33.03
2023-01-13T05:41:45.189Z,33.03
2023-01-13T05:42:15.219Z,33.05
2023-01-13T05:42:45.253Z,33.03
2023-01-13T05:43:15.285Z,33.05
2023-01-13T05:43:45.329Z,33.07
2023-01-13T05:44:15.426Z,33.07
2023-01-13T05:44:45.490Z,33.05
2023-01-13T05:45:15.498Z,33.01
2023-01-13T05:45:45.538Z,32.99
2023-01-13T05:46:15.627Z,33.02
2023-01-13T05:46:45.797Z,33.04
2023-01-13T05:47:15.738Z,33.04
2023-01-13T05:47:45.771Z,32.98
2023-01-13T05:48:15.803Z,33.02
2023-01-13T05:48:45.835Z,33.01
2023-01-13T05:49:15.867Z,32.92
2023-01-13T05:49:45.906Z,32.92
2023-01-13T05:50:15.942Z,32.98
2023-01-13T05:50:45.983Z,32.92
2023-01-13T05:51:16.019Z,32.91
2023-01-13T05:51:46.022Z,32.89
2023-01-13T05:52:16.023Z,32.85
2023-01-13T05:52:46.016Z,32.89
2023-01-13T05:53:16.131Z,32.91
2023-01-13T05:53:46.132Z,32.85
2023-01-13T05:54:16.250Z,32.80
2023-01-13T05:54:46.372Z,32.88
2023-01-13T05:55:16.366Z,32.84
2023-01-13T05:55:46.361Z,32.83
2023-01-13T05:56:16.362Z,32.82
2023-01-13T05:56:46.492Z,32.82
2023-01-13T05:57:16.794Z,32.82
2023-01-13T05:57:46.512Z,32.82
2023-01-13T05:58:16.499Z,32.80
2023-01-13T05:58:46.620Z,32.80
2023-01-13T05:59:16.736Z,32.79
2023-01-13T05:59:46.736Z,32.77
2023-01-13T06:00:16.771Z,32.76
2023-01-13T06:00:46.777Z,32.76
2023-01-13T06:01:16.809Z,32.78
2023-01-13T06:01:46.857Z,32.81
2023-01-13T06:02:16.889Z,32.73
2023-01-13T06:02:46.997Z,32.78
2023-01-13T06:03:17.052Z,32.76
2023-01-13T06:03:47.111Z,32.78
2023-01-13T06:04:17.219Z,32.75
2023-01-13T06:04:47.313Z,32.74
2023-01-13T06:05:17.364Z,32.76
2023-01-13T06:05:47.401Z,32.73
2023-01-13T06:06:17.440Z,32.72
2023-01-13T06:06:47.481Z,32.72
2023-01-13T06:07:17.510Z,32.73
2023-01-13T06:07:47.546Z,32.75
2023-01-13T06:08:17.581Z,32.75
2023-01-13T06:08:47.620Z,32.67
2023-01-13T06:09:17.659Z,32.65
2023-01-13T06:09:47.687Z,32.73
2023-01-13T06:10:17.719Z,32.73
2023-01-13T06:10:47.764Z,32.72
2023-01-13T06:11:17.793Z,32.69
2023-01-13T06:11:47.834Z,32.70
2023-01-13T06:12:17.897Z,32.70
2023-01-13T06:12:47.932Z,32.76
2023-01-13T06:13:17.985Z,32.73
2023-01-13T06:13:48.042Z,32.73
2023-01-13T06:14:18.098Z,32.76
2023-01-13T06:14:48.151Z,32.76
2023-01-13T06:15:18.211Z,32.76
2023-01-13T06:15:48.277Z,32.84
2023-01-13T06:16:18.401Z,32.73
2023-01-13T06:16:48.362Z,32.82
2023-01-13T06:17:18.418Z,32.80
2023-01-13T06:17:48.454Z,32.74
2023-01-13T06:18:18.487Z,32.84
2023-01-13T06:18:48.530Z,32.88
2023-01-13T06:19:18.553Z,32.84
2023-01-13T06:19:48.592Z,32.80
2023-01-13T06:20:18.629Z,32.84
2023-01-13T06:20:48.673Z,32.77
2023-01-13T06:21:18.696Z,32.84
2023-01-13T06:21:48.726Z,32.83
2023-01-13T06:22:18.763Z,32.82
2023-01-13T06:22:48.798Z,32.81
2023-01-13T06:23:18.830Z,32.85
2023-01-13T06:23:48.867Z,32.83
2023-01-13T06:24:18.908Z,32.79
2023-01-13T06:24:48.939Z,32.84
2023-01-13T06:25:18.972Z,32.81
2023-01-13T06:25:49.005Z,32.79
2023-01-13T06:26:19.038Z,32.79
2023-01-13T06:26:49.094Z,32.79